sensor_id;sensor_type;location;lat;lon;timestamp;P1;durP1;ratioP1;P2;durP2;ratioP2
63312;SDS011;49442;45.640;13.812;2022-12-18T12:13:19;19.13;;;11.15;;
63312;SDS011;49442;45.640;13.812;2022-12-18T12:16:02;16.42;;;10.27;;
63312;SDS011;49442;45.640;13.812;2022-12-18T12:24:14;16.63;;;12.40;;
63312;SDS011;49442;45.640;13.812;2022-12-18T12:39:49;15.68;;;10.60;;
63312;SDS011;49442;45.640;13.812;2022-12-18T12:43:19;16.70;;;10.27;;
63312;SDS011;49442;45.640;13.812;2022-12-18T12:48:04;32.00;;;18.02;;
63312;SDS011;49442;45.640;13.812;2022-12-18T12:50:38;14.88;;;9.60;;
63312;SDS011;49442;45.640;13.812;2022-12-18T12:53:07;17.48;;;10.05;;
63312;SDS011;49442;45.640;13.812;2022-12-18T12:55:34;14.18;;;8.82;;
63312;SDS011;49442;45.640;13.812;2022-12-18T12:58:04;15.77;;;11.38;;
63312;SDS011;49442;45.640;13.812;2022-12-18T13:00:55;16.33;;;10.20;;
63312;SDS011;49442;45.640;13.812;2022-12-18T13:03:30;14.10;;;9.68;;
63312;SDS011;49442;45.640;13.812;2022-12-18T13:06:15;14.80;;;10.70;;
63312;SDS011;49442;45.640;13.812;2022-12-18T13:09:06;15.90;;;10.25;;
63312;SDS011;49442;45.640;13.812;2022-12-18T13:14:54;16.13;;;10.98;;
63312;SDS011;49442;45.640;13.812;2022-12-18T13:19:48;15.82;;;10.23;;
63312;SDS011;49442;45.640;13.812;2022-12-18T13:22:25;15.90;;;10.48;;
63312;SDS011;49442;45.640;13.812;2022-12-18T13:24:58;21.65;;;9.98;;
63312;SDS011;49442;45.640;13.812;2022-12-18T13:38:32;15.70;;;10.38;;
63312;SDS011;49442;45.640;13.812;2022-12-18T13:43:46;16.95;;;9.98;;
63312;SDS011;49442;45.640;13.812;2022-12-18T13:51:38;14.65;;;9.50;;
63312;SDS011;49442;45.640;13.812;2022-12-18T13:54:24;21.92;;;10.48;;
63312;SDS011;49442;45.640;13.812;2022-12-18T13:56:57;18.88;;;10.65;;
63312;SDS011;49442;45.640;13.812;2022-12-18T13:59:24;13.98;;;9.52;;
63312;SDS011;49442;45.640;13.812;2022-12-18T14:06:46;16.88;;;10.05;;
63312;SDS011;49442;45.640;13.812;2022-12-18T14:09:15;16.38;;;10.60;;
63312;SDS011;49442;45.640;13.812;2022-12-18T14:11:47;17.48;;;10.90;;
63312;SDS011;49442;45.640;13.812;2022-12-18T14:14:16;18.13;;;10.63;;
63312;SDS011;49442;45.640;13.812;2022-12-18T14:16:43;15.00;;;10.43;;
63312;SDS011;49442;45.640;13.812;2022-12-18T14:19:14;18.75;;;10.05;;
63312;SDS011;49442;45.640;13.812;2022-12-18T14:21:45;15.23;;;9.45;;
63312;SDS011;49442;45.640;13.812;2022-12-18T14:26:41;14.82;;;10.10;;
63312;SDS011;49442;45.640;13.812;2022-12-18T14:29:21;16.08;;;10.18;;
63312;SDS011;49442;45.640;13.812;2022-12-18T14:32:11;17.90;;;10.50;;
63312;SDS011;49442;45.640;13.812;2022-12-18T14:34:37;16.88;;;10.93;;
63312;SDS011;49442;45.640;13.812;2022-12-18T14:37:03;19.27;;;11.18;;
63312;SDS011;49442;45.640;13.812;2022-12-18T14:39:29;17.98;;;10.98;;
63312;SDS011;49442;45.640;13.812;2022-12-18T14:41:55;18.95;;;12.07;;
63312;SDS011;49442;45.640;13.812;2022-12-18T14:44:21;18.00;;;11.38;;
63312;SDS011;49442;45.640;13.812;2022-12-18T14:46:46;28.20;;;13.40;;
63312;SDS011;49442;45.640;13.812;2022-12-18T14:49:26;17.98;;;11.57;;
63312;SDS011;49442;45.640;13.812;2022-12-18T14:51:57;17.20;;;10.48;;
63312;SDS011;49442;45.640;13.812;2022-12-18T14:54:27;15.25;;;10.18;;
63312;SDS011;49442;45.640;13.812;2022-12-18T14:59:49;15.27;;;10.55;;
63312;SDS011;49442;45.640;13.812;2022-12-18T15:05:01;20.55;;;12.10;;
63312;SDS011;49442;45.640;13.812;2022-12-18T15:07:39;15.35;;;10.20;;
63312;SDS011;49442;45.640;13.812;2022-12-18T15:12:48;19.55;;;11.43;;
63312;SDS011;49442;45.640;13.812;2022-12-18T15:17:59;19.25;;;11.70;;
63312;SDS011;49442;45.640;13.812;2022-12-18T15:20:28;20.67;;;11.27;;
63312;SDS011;49442;45.640;13.812;2022-12-18T15:22:58;22.42;;;12.65;;
63312;SDS011;49442;45.640;13.812;2022-12-18T15:27:56;19.55;;;12.23;;
63312;SDS011;49442;45.640;13.812;2022-12-18T15:30:23;20.90;;;12.98;;
63312;SDS011;49442;45.640;13.812;2022-12-18T15:32:50;21.50;;;13.05;;
63312;SDS011;49442;45.640;13.812;2022-12-18T15:35:18;19.73;;;12.07;;
63312;SDS011;49442;45.640;13.812;2022-12-18T15:37:49;34.13;;;13.57;;
63312;SDS011;49442;45.640;13.812;2022-12-18T15:40:19;19.65;;;12.73;;
63312;SDS011;49442;45.640;13.812;2022-12-18T15:42:47;15.73;;;10.02;;
63312;SDS011;49442;45.640;13.812;2022-12-18T15:45:32;20.45;;;11.30;;
63312;SDS011;49442;45.640;13.812;2022-12-18T15:47:58;21.65;;;12.13;;
63312;SDS011;49442;45.640;13.812;2022-12-18T15:50:24;19.10;;;10.90;;
63312;SDS011;49442;45.640;13.812;2022-12-18T15:52:51;17.77;;;11.93;;
63312;SDS011;49442;45.640;13.812;2022-12-18T15:55:19;18.88;;;12.00;;
63312;SDS011;49442;45.640;13.812;2022-12-18T15:58:06;18.02;;;11.38;;
63312;SDS011;49442;45.640;13.812;2022-12-18T16:00:34;18.98;;;11.68;;
63312;SDS011;49442;45.640;13.812;2022-12-18T16:03:01;18.25;;;11.98;;
63312;SDS011;49442;45.640;13.812;2022-12-18T16:05:28;16.98;;;10.82;;
63312;SDS011;49442;45.640;13.812;2022-12-18T16:07:53;17.55;;;10.65;;
63312;SDS011;49442;45.640;13.812;2022-12-18T16:10:19;18.10;;;11.07;;
63312;SDS011;49442;45.640;13.812;2022-12-18T16:12:45;23.17;;;13.15;;
63312;SDS011;49442;45.640;13.812;2022-12-18T16:15:12;24.13;;;14.45;;
63312;SDS011;49442;45.640;13.812;2022-12-18T16:17:40;18.15;;;10.93;;
63312;SDS011;49442;45.640;13.812;2022-12-18T16:20:17;19.02;;;12.18;;
63312;SDS011;49442;45.640;13.812;2022-12-18T16:22:45;17.70;;;10.77;;
63312;SDS011;49442;45.640;13.812;2022-12-18T16:25:22;18.17;;;10.88;;
63312;SDS011;49442;45.640;13.812;2022-12-18T16:27:50;16.65;;;10.25;;
63312;SDS011;49442;45.640;13.812;2022-12-18T16:30:17;16.45;;;9.98;;
63312;SDS011;49442;45.640;13.812;2022-12-18T16:32:44;15.63;;;9.13;;
63312;SDS011;49442;45.640;13.812;2022-12-18T16:35:11;15.88;;;8.90;;
63312;SDS011;49442;45.640;13.812;2022-12-18T16:37:38;16.88;;;10.52;;
63312;SDS011;49442;45.640;13.812;2022-12-18T16:40:06;15.43;;;9.57;;
63312;SDS011;49442;45.640;13.812;2022-12-18T16:42:34;14.50;;;9.35;;
63312;SDS011;49442;45.640;13.812;2022-12-18T16:45:01;15.82;;;9.25;;
63312;SDS011;49442;45.640;13.812;2022-12-18T16:47:27;17.02;;;10.63;;
63312;SDS011;49442;45.640;13.812;2022-12-18T16:49:53;15.30;;;9.60;;
63312;SDS011;49442;45.640;13.812;2022-12-18T16:52:19;16.20;;;9.98;;
63312;SDS011;49442;45.640;13.812;2022-12-18T16:54:45;16.25;;;9.45;;
63312;SDS011;49442;45.640;13.812;2022-12-18T16:57:17;17.40;;;10.57;;
63312;SDS011;49442;45.640;13.812;2022-12-18T16:59:44;19.50;;;10.55;;
63312;SDS011;49442;45.640;13.812;2022-12-18T17:02:18;15.07;;;9.50;;
63312;SDS011;49442;45.640;13.812;2022-12-18T17:04:46;15.60;;;9.63;;
63312;SDS011;49442;45.640;13.812;2022-12-18T17:07:12;14.73;;;9.13;;
63312;SDS011;49442;45.640;13.812;2022-12-18T17:09:38;14.45;;;9.32;;
63312;SDS011;49442;45.640;13.812;2022-12-18T17:12:04;15.75;;;9.90;;
63312;SDS011;49442;45.640;13.812;2022-12-18T17:14:31;16.88;;;9.30;;
63312;SDS011;49442;45.640;13.812;2022-12-18T17:16:57;16.33;;;9.57;;
63312;SDS011;49442;45.640;13.812;2022-12-18T17:19:24;15.32;;;9.50;;
63312;SDS011;49442;45.640;13.812;2022-12-18T17:21:51;18.05;;;10.25;;
63312;SDS011;49442;45.640;13.812;2022-12-18T17:24:17;22.35;;;11.85;;
63312;SDS011;49442;45.640;13.812;2022-12-18T17:26:43;18.60;;;10.85;;
63312;SDS011;49442;45.640;13.812;2022-12-18T17:29:10;16.48;;;10.05;;
63312;SDS011;49442;45.640;13.812;2022-12-18T17:31:38;17.17;;;9.77;;
63312;SDS011;49442;45.640;13.812;2022-12-18T17:34:03;14.60;;;9.70;;
63312;SDS011;49442;45.640;13.812;2022-12-18T17:36:29;19.55;;;10.52;;
63312;SDS011;49442;45.640;13.812;2022-12-18T17:38:57;14.25;;;9.60;;
63312;SDS011;49442;45.640;13.812;2022-12-18T17:41:24;15.57;;;8.88;;
63312;SDS011;49442;45.640;13.812;2022-12-18T17:43:58;15.35;;;9.88;;
63312;SDS011;49442;45.640;13.812;2022-12-18T17:46:25;16.17;;;9.80;;
63312;SDS011;49442;45.640;13.812;2022-12-18T17:48:55;14.70;;;9.15;;
63312;SDS011;49442;45.640;13.812;2022-12-18T17:51:25;13.90;;;8.50;;
63312;SDS011;49442;45.640;13.812;2022-12-18T17:53:51;13.07;;;8.52;;
63312;SDS011;49442;45.640;13.812;2022-12-18T17:56:18;16.67;;;9.80;;
63312;SDS011;49442;45.640;13.812;2022-12-18T17:58:44;14.23;;;8.95;;
63312;SDS011;49442;45.640;13.812;2022-12-18T18:01:12;16.50;;;10.02;;
63312;SDS011;49442;45.640;13.812;2022-12-18T18:03:40;16.02;;;9.77;;
63312;SDS011;49442;45.640;13.812;2022-12-18T18:06:08;14.35;;;9.40;;
63312;SDS011;49442;45.640;13.812;2022-12-18T18:08:35;16.25;;;9.90;;
63312;SDS011;49442;45.640;13.812;2022-12-18T18:11:04;17.10;;;10.43;;
63312;SDS011;49442;45.640;13.812;2022-12-18T18:13:51;14.25;;;9.00;;
63312;SDS011;49442;45.640;13.812;2022-12-18T18:16:34;15.68;;;9.32;;
63312;SDS011;49442;45.640;13.812;2022-12-18T18:19:02;16.27;;;9.70;;
63312;SDS011;49442;45.640;13.812;2022-12-18T18:21:30;15.60;;;9.80;;
63312;SDS011;49442;45.640;13.812;2022-12-18T18:24:00;15.38;;;9.75;;
63312;SDS011;49442;45.640;13.812;2022-12-18T18:26:27;16.50;;;9.50;;
63312;SDS011;49442;45.640;13.812;2022-12-18T18:28:55;16.80;;;9.10;;
63312;SDS011;49442;45.640;13.812;2022-12-18T18:31:21;14.55;;;8.57;;
63312;SDS011;49442;45.640;13.812;2022-12-18T18:33:50;14.15;;;9.43;;
63312;SDS011;49442;45.640;13.812;2022-12-18T18:36:16;14.23;;;9.13;;
63312;SDS011;49442;45.640;13.812;2022-12-18T18:38:41;16.58;;;9.20;;
63312;SDS011;49442;45.640;13.812;2022-12-18T18:41:10;14.98;;;9.70;;
63312;SDS011;49442;45.640;13.812;2022-12-18T18:43:36;14.88;;;9.63;;
63312;SDS011;49442;45.640;13.812;2022-12-18T18:46:02;14.80;;;8.63;;
63312;SDS011;49442;45.640;13.812;2022-12-18T18:48:30;13.65;;;9.43;;
63312;SDS011;49442;45.640;13.812;2022-12-18T18:50:59;16.42;;;9.60;;
63312;SDS011;49442;45.640;13.812;2022-12-18T18:53:27;13.90;;;8.55;;
63312;SDS011;49442;45.640;13.812;2022-12-18T18:55:53;13.38;;;8.23;;
63312;SDS011;49442;45.640;13.812;2022-12-18T18:58:21;15.40;;;9.15;;
63312;SDS011;49442;45.640;13.812;2022-12-18T19:00:53;13.30;;;8.55;;
63312;SDS011;49442;45.640;13.812;2022-12-18T19:03:29;12.48;;;8.15;;
63312;SDS011;49442;45.640;13.812;2022-12-18T19:05:56;14.90;;;9.00;;
63312;SDS011;49442;45.640;13.812;2022-12-18T19:08:24;13.00;;;8.13;;
63312;SDS011;49442;45.640;13.812;2022-12-18T19:10:51;12.38;;;8.35;;
63312;SDS011;49442;45.640;13.812;2022-12-18T19:13:19;18.42;;;10.75;;
63312;SDS011;49442;45.640;13.812;2022-12-18T19:15:46;13.60;;;9.30;;
63312;SDS011;49442;45.640;13.812;2022-12-18T19:18:16;14.52;;;8.63;;
63312;SDS011;49442;45.640;13.812;2022-12-18T19:20:42;14.52;;;9.10;;
63312;SDS011;49442;45.640;13.812;2022-12-18T19:23:08;13.52;;;8.55;;
63312;SDS011;49442;45.640;13.812;2022-12-18T19:25:38;14.48;;;8.70;;
63312;SDS011;49442;45.640;13.812;2022-12-18T19:28:04;14.10;;;8.38;;
63312;SDS011;49442;45.640;13.812;2022-12-18T19:30:30;14.68;;;8.80;;
63312;SDS011;49442;45.640;13.812;2022-12-18T19:32:56;13.13;;;8.13;;
63312;SDS011;49442;45.640;13.812;2022-12-18T19:35:22;20.63;;;13.70;;
63312;SDS011;49442;45.640;13.812;2022-12-18T19:37:47;12.82;;;8.13;;
63312;SDS011;49442;45.640;13.812;2022-12-18T19:40:13;12.93;;;8.07;;
63312;SDS011;49442;45.640;13.812;2022-12-18T19:42:39;15.23;;;8.77;;
63312;SDS011;49442;45.640;13.812;2022-12-18T19:45:04;13.43;;;8.38;;
63312;SDS011;49442;45.640;13.812;2022-12-18T19:47:30;13.55;;;8.25;;
63312;SDS011;49442;45.640;13.812;2022-12-18T19:49:56;16.83;;;10.00;;
63312;SDS011;49442;45.640;13.812;2022-12-18T19:52:22;13.13;;;8.20;;
63312;SDS011;49442;45.640;13.812;2022-12-18T19:54:47;15.45;;;9.73;;
63312;SDS011;49442;45.640;13.812;2022-12-18T19:57:13;12.63;;;7.90;;
63312;SDS011;49442;45.640;13.812;2022-12-18T19:59:39;12.23;;;7.70;;
63312;SDS011;49442;45.640;13.812;2022-12-18T20:02:11;11.57;;;7.93;;
63312;SDS011;49442;45.640;13.812;2022-12-18T20:04:38;12.93;;;8.05;;
63312;SDS011;49442;45.640;13.812;2022-12-18T20:07:04;13.48;;;8.68;;
63312;SDS011;49442;45.640;13.812;2022-12-18T20:09:30;13.52;;;7.60;;
63312;SDS011;49442;45.640;13.812;2022-12-18T20:11:56;10.32;;;6.80;;
63312;SDS011;49442;45.640;13.812;2022-12-18T20:14:21;13.07;;;8.10;;
63312;SDS011;49442;45.640;13.812;2022-12-18T20:16:47;13.82;;;8.52;;
63312;SDS011;49442;45.640;13.812;2022-12-18T20:19:13;16.83;;;8.70;;
63312;SDS011;49442;45.640;13.812;2022-12-18T20:21:39;13.02;;;8.02;;
63312;SDS011;49442;45.640;13.812;2022-12-18T20:24:05;12.93;;;7.75;;
63312;SDS011;49442;45.640;13.812;2022-12-18T20:26:32;11.57;;;6.78;;
63312;SDS011;49442;45.640;13.812;2022-12-18T20:29:01;12.27;;;6.65;;
63312;SDS011;49442;45.640;13.812;2022-12-18T20:31:26;11.75;;;7.35;;
63312;SDS011;49442;45.640;13.812;2022-12-18T20:33:54;24.48;;;15.90;;
63312;SDS011;49442;45.640;13.812;2022-12-18T20:36:22;12.25;;;7.30;;
63312;SDS011;49442;45.640;13.812;2022-12-18T20:38:47;10.50;;;7.60;;
63312;SDS011;49442;45.640;13.812;2022-12-18T20:41:14;14.98;;;8.02;;
63312;SDS011;49442;45.640;13.812;2022-12-18T20:43:42;11.63;;;7.60;;
63312;SDS011;49442;45.640;13.812;2022-12-18T20:46:09;11.63;;;7.63;;
63312;SDS011;49442;45.640;13.812;2022-12-18T20:48:36;11.80;;;7.68;;
63312;SDS011;49442;45.640;13.812;2022-12-18T20:51:14;13.63;;;7.50;;
63312;SDS011;49442;45.640;13.812;2022-12-18T20:53:42;12.43;;;8.05;;
63312;SDS011;49442;45.640;13.812;2022-12-18T20:56:09;13.40;;;7.68;;
63312;SDS011;49442;45.640;13.812;2022-12-18T20:58:40;14.20;;;8.25;;
63312;SDS011;49442;45.640;13.812;2022-12-18T21:01:07;12.07;;;7.70;;
63312;SDS011;49442;45.640;13.812;2022-12-18T21:03:41;14.60;;;7.63;;
63312;SDS011;49442;45.640;13.812;2022-12-18T21:06:08;11.73;;;7.55;;
63312;SDS011;49442;45.640;13.812;2022-12-18T21:08:34;12.90;;;7.65;;
63312;SDS011;49442;45.640;13.812;2022-12-18T21:14:04;12.55;;;7.45;;
63312;SDS011;49442;45.640;13.812;2022-12-18T21:16:33;11.00;;;7.03;;
63312;SDS011;49442;45.640;13.812;2022-12-18T21:18:59;9.77;;;7.13;;
63312;SDS011;49442;45.640;13.812;2022-12-18T21:21:25;12.85;;;8.07;;
63312;SDS011;49442;45.640;13.812;2022-12-18T21:23:50;12.48;;;7.70;;
63312;SDS011;49442;45.640;13.812;2022-12-18T21:28:46;12.43;;;8.07;;
63312;SDS011;49442;45.640;13.812;2022-12-18T21:31:12;12.93;;;8.93;;
63312;SDS011;49442;45.640;13.812;2022-12-18T21:33:38;14.10;;;7.65;;
63312;SDS011;49442;45.640;13.812;2022-12-18T21:36:05;12.98;;;7.88;;
63312;SDS011;49442;45.640;13.812;2022-12-18T21:38:31;14.07;;;9.35;;
63312;SDS011;49442;45.640;13.812;2022-12-18T21:40:57;12.02;;;8.10;;
63312;SDS011;49442;45.640;13.812;2022-12-18T21:43:23;13.82;;;8.15;;
63312;SDS011;49442;45.640;13.812;2022-12-18T21:46:07;13.15;;;7.75;;
63312;SDS011;49442;45.640;13.812;2022-12-18T21:48:33;13.00;;;7.80;;
63312;SDS011;49442;45.640;13.812;2022-12-18T21:51:02;12.35;;;7.80;;
63312;SDS011;49442;45.640;13.812;2022-12-18T21:53:28;13.00;;;7.85;;
63312;SDS011;49442;45.640;13.812;2022-12-18T21:55:57;13.98;;;8.07;;
63312;SDS011;49442;45.640;13.812;2022-12-18T21:58:23;11.32;;;7.43;;
63312;SDS011;49442;45.640;13.812;2022-12-18T22:00:49;11.45;;;7.40;;
63312;SDS011;49442;45.640;13.812;2022-12-18T22:03:15;12.95;;;7.68;;
63312;SDS011;49442;45.640;13.812;2022-12-18T22:05:42;12.13;;;7.78;;
63312;SDS011;49442;45.640;13.812;2022-12-18T22:08:08;13.95;;;8.38;;
63312;SDS011;49442;45.640;13.812;2022-12-18T22:10:34;10.77;;;7.28;;
63312;SDS011;49442;45.640;13.812;2022-12-18T22:13:00;11.88;;;7.68;;
63312;SDS011;49442;45.640;13.812;2022-12-18T22:15:26;12.68;;;7.40;;
63312;SDS011;49442;45.640;13.812;2022-12-18T22:17:52;13.25;;;7.70;;
63312;SDS011;49442;45.640;13.812;2022-12-18T22:20:18;13.63;;;8.57;;
63312;SDS011;49442;45.640;13.812;2022-12-18T22:22:43;15.13;;;8.30;;
63312;SDS011;49442;45.640;13.812;2022-12-18T22:25:09;13.70;;;8.85;;
63312;SDS011;49442;45.640;13.812;2022-12-18T22:27:35;12.93;;;8.52;;
63312;SDS011;49442;45.640;13.812;2022-12-18T22:30:02;13.85;;;7.60;;
63312;SDS011;49442;45.640;13.812;2022-12-18T22:32:28;14.48;;;8.70;;
63312;SDS011;49442;45.640;13.812;2022-12-18T22:34:59;12.60;;;8.23;;
63312;SDS011;49442;45.640;13.812;2022-12-18T22:37:25;10.65;;;7.55;;
63312;SDS011;49442;45.640;13.812;2022-12-18T22:39:51;12.82;;;7.53;;
63312;SDS011;49442;45.640;13.812;2022-12-18T22:42:17;13.30;;;7.93;;
63312;SDS011;49442;45.640;13.812;2022-12-18T22:44:42;11.48;;;7.57;;
63312;SDS011;49442;45.640;13.812;2022-12-18T22:47:08;11.02;;;6.97;;
63312;SDS011;49442;45.640;13.812;2022-12-18T22:49:34;13.13;;;8.48;;
63312;SDS011;49442;45.640;13.812;2022-12-18T22:52:00;11.30;;;7.00;;
63312;SDS011;49442;45.640;13.812;2022-12-18T22:54:26;12.35;;;7.22;;
63312;SDS011;49442;45.640;13.812;2022-12-18T22:56:51;13.82;;;8.13;;
63312;SDS011;49442;45.640;13.812;2022-12-18T22:59:18;12.70;;;7.97;;
63312;SDS011;49442;45.640;13.812;2022-12-18T23:01:45;13.35;;;7.80;;
63312;SDS011;49442;45.640;13.812;2022-12-18T23:04:11;13.73;;;8.57;;
63312;SDS011;49442;45.640;13.812;2022-12-18T23:06:38;11.52;;;7.38;;
63312;SDS011;49442;45.640;13.812;2022-12-18T23:09:04;10.10;;;6.72;;
63312;SDS011;49442;45.640;13.812;2022-12-18T23:11:30;13.27;;;7.50;;
63312;SDS011;49442;45.640;13.812;2022-12-18T23:13:56;10.65;;;7.03;;
63312;SDS011;49442;45.640;13.812;2022-12-18T23:16:22;10.60;;;6.55;;
63312;SDS011;49442;45.640;13.812;2022-12-18T23:18:52;10.30;;;6.45;;
63312;SDS011;49442;45.640;13.812;2022-12-18T23:21:19;11.77;;;7.13;;
63312;SDS011;49442;45.640;13.812;2022-12-18T23:23:46;12.90;;;7.50;;
63312;SDS011;49442;45.640;13.812;2022-12-18T23:26:17;15.10;;;8.15;;
63312;SDS011;49442;45.640;13.812;2022-12-18T23:28:44;12.32;;;6.75;;
63312;SDS011;49442;45.640;13.812;2022-12-18T23:33:41;12.35;;;7.95;;
63312;SDS011;49442;45.640;13.812;2022-12-18T23:36:07;11.85;;;7.88;;
63312;SDS011;49442;45.640;13.812;2022-12-18T23:38:33;11.02;;;7.38;;
63312;SDS011;49442;45.640;13.812;2022-12-18T23:41:04;11.13;;;7.53;;
63312;SDS011;49442;45.640;13.812;2022-12-18T23:43:31;14.50;;;8.88;;
63312;SDS011;49442;45.640;13.812;2022-12-18T23:45:57;11.73;;;7.13;;
63312;SDS011;49442;45.640;13.812;2022-12-18T23:48:23;8.95;;;7.13;;
63312;SDS011;49442;45.640;13.812;2022-12-18T23:50:48;13.23;;;8.55;;
63312;SDS011;49442;45.640;13.812;2022-12-18T23:53:14;11.40;;;7.90;;
63312;SDS011;49442;45.640;13.812;2022-12-18T23:55:40;11.20;;;7.65;;
63312;SDS011;49442;45.640;13.812;2022-12-18T23:58:08;12.15;;;7.93;;
